aviador You're here:

EPWA Decoded Metar

WARSAW in POLAND
Report Time2017-11-25 03:30:00
UTC Time2017-11-25 03:51:46
Flight Rules vfr VFR
Wind200° at 06 kt
W.Decomp.*RWY 15: 4.2 kt HW 4.2 kt RCW
RWY 11: 0.5 kt HW 6.0 kt RCW
W.Rank200° ranks 25
Current wind is above 200° avg. (5.8)
Visibility9999 m
Phenomena:Light Rain
Clouds:N/A
Expected CloudBase > 400 ft AGL from Temp-Dew spread
CeilingNone
Temp07°C (ISA -7)
Dew Point06°C (93% RH)
AAT3.9°C
QNH1013 hPa
Density Alt-400 ft
Elevation351 ft
Report Wrong Elevation
Raw Report
EPWA 250330Z 20006KT 9999 -RA NSC 07/06 Q1013 NOSIG=

Extra information for EPWA:More info

Metar Taf Metar & Taf Last 4 Metars F.Rules Stats Wind Profile Meteogram Temp Stats Airport Information Weather charts Add Link Nearby VenuesMetar ALERT Operation Metar Decoded Social comments